createdAt,value
2022-11-19T00:02:02.489Z,10.70
2022-11-19T00:04:30.859Z,10.40
2022-11-19T00:06:59.139Z,10.70
2022-11-19T00:09:28.720Z,10.90
2022-11-19T00:12:15.389Z,10.60
2022-11-19T00:14:43.532Z,10.60
2022-11-19T00:17:11.837Z,10.60
2022-11-19T00:19:39.940Z,10.80
2022-11-19T00:22:08.103Z,10.60
2022-11-19T00:24:37.836Z,10.50
2022-11-19T00:27:06.155Z,10.50
2022-11-19T00:29:34.235Z,10.40
2022-11-19T00:32:02.613Z,10.50
2022-11-19T00:34:30.694Z,10.50
2022-11-19T00:36:58.869Z,10.70
2022-11-19T00:39:27.279Z,10.80
2022-11-19T00:41:56.770Z,10.60
2022-11-19T00:44:24.881Z,10.50
2022-11-19T00:46:53.295Z,10.70
2022-11-19T00:49:21.566Z,10.60
2022-11-19T00:51:49.813Z,10.40
2022-11-19T00:54:18.387Z,10.70
2022-11-19T00:56:46.338Z,10.60
2022-11-19T00:59:17.251Z,10.50
2022-11-19T01:01:45.961Z,10.50
2022-11-19T01:04:14.407Z,10.80
2022-11-19T01:06:42.394Z,10.80
2022-11-19T01:09:10.776Z,10.90
2022-11-19T01:11:39.211Z,11.10
2022-11-19T01:14:08.012Z,11.40
2022-11-19T01:16:38.737Z,11.40
2022-11-19T01:19:07.428Z,11.30
2022-11-19T01:21:36.229Z,11.30
2022-11-19T01:24:05.021Z,11.40
2022-11-19T01:26:33.177Z,11.30
2022-11-19T01:29:01.202Z,11.00
2022-11-19T01:31:30.454Z,10.90
2022-11-19T01:34:00.277Z,10.80
2022-11-19T01:36:29.311Z,10.90
2022-11-19T01:38:57.854Z,10.60
2022-11-19T01:41:27.008Z,10.90
2022-11-19T01:43:56.296Z,10.60
2022-11-19T01:46:25.726Z,10.20
2022-11-19T01:48:56.587Z,10.20
2022-11-19T01:51:27.185Z,10.50
2022-11-19T01:53:56.561Z,10.40
2022-11-19T01:56:24.820Z,10.60
2022-11-19T01:58:54.630Z,10.70
2022-11-19T02:01:23.210Z,10.60
2022-11-19T02:03:51.854Z,10.60
2022-11-19T02:06:20.275Z,10.60
2022-11-19T02:08:51.625Z,10.50
2022-11-19T02:11:29.326Z,10.30
2022-11-19T02:14:04.095Z,10.30
2022-11-19T02:16:34.229Z,10.40
2022-11-19T02:19:04.312Z,10.30
2022-11-19T02:21:33.763Z,10.30
2022-11-19T02:24:12.052Z,10.30
2022-11-19T02:26:55.204Z,10.40
2022-11-19T02:29:31.300Z,10.40
2022-11-19T02:32:02.827Z,10.40
2022-11-19T02:34:32.603Z,10.60
2022-11-19T02:37:03.585Z,10.60
2022-11-19T02:39:36.703Z,10.60
2022-11-19T02:42:07.747Z,10.70
2022-11-19T02:44:54.809Z,10.80
2022-11-19T02:47:26.375Z,10.60
2022-11-19T02:49:57.395Z,10.70
2022-11-19T02:52:25.825Z,10.70
2022-11-19T02:54:54.193Z,10.70
2022-11-19T02:57:22.290Z,10.80
2022-11-19T03:00:11.250Z,10.80
2022-11-19T03:02:59.689Z,10.70
2022-11-19T03:05:29.559Z,10.50
2022-11-19T03:07:57.612Z,10.60
2022-11-19T03:10:28.497Z,10.60
2022-11-19T03:12:59.893Z,10.70
2022-11-19T03:15:49.272Z,10.90
2022-11-19T03:18:20.293Z,10.80
2022-11-19T03:20:50.904Z,11.00
2022-11-19T03:23:21.262Z,11.20
2022-11-19T03:25:51.518Z,11.20
2022-11-19T03:28:21.653Z,11.30
2022-11-19T03:30:50.744Z,11.00
2022-11-19T03:33:22.908Z,10.80
2022-11-19T03:35:53.481Z,10.70
2022-11-19T03:38:24.773Z,10.70
2022-11-19T03:40:55.371Z,10.70
2022-11-19T03:43:25.456Z,10.60
2022-11-19T03:45:54.981Z,10.70
2022-11-19T03:48:24.621Z,10.90
2022-11-19T03:50:53.347Z,10.90
2022-11-19T03:53:22.219Z,11.00
2022-11-19T03:55:52.958Z,10.90
2022-11-19T03:58:24.483Z,11.00
2022-11-19T04:00:52.981Z,10.90
2022-11-19T04:03:21.219Z,10.70
2022-11-19T04:05:50.646Z,10.90
2022-11-19T04:08:18.945Z,10.80
2022-11-19T04:10:47.038Z,11.00
2022-11-19T04:13:15.577Z,11.00
2022-11-19T04:15:43.949Z,10.90
2022-11-19T04:18:12.107Z,11.00
2022-11-19T04:20:40.248Z,10.90
2022-11-19T04:23:09.855Z,10.80
2022-11-19T04:25:38.015Z,10.90
2022-11-19T04:28:06.092Z,10.70
2022-11-19T04:30:34.434Z,10.70
2022-11-19T04:33:02.396Z,10.70
2022-11-19T04:35:30.457Z,10.90
2022-11-19T04:37:58.927Z,10.90
2022-11-19T04:40:28.340Z,10.90
2022-11-19T04:42:56.420Z,10.80
2022-11-19T04:45:24.839Z,11.00
2022-11-19T04:47:52.853Z,10.90
2022-11-19T04:50:21.027Z,10.90
2022-11-19T04:52:49.277Z,10.90
2022-11-19T04:55:17.392Z,10.90
2022-11-19T04:57:46.973Z,10.70
2022-11-19T05:00:16.809Z,10.80
2022-11-19T05:02:45.600Z,10.50
2022-11-19T05:05:14.472Z,10.60
2022-11-19T05:07:42.828Z,10.60
2022-11-19T05:10:11.439Z,10.40
2022-11-19T05:12:39.598Z,10.40
2022-11-19T05:15:10.258Z,10.40
2022-11-19T05:17:38.390Z,10.40
2022-11-19T05:20:06.972Z,10.50
2022-11-19T05:22:35.233Z,10.60
2022-11-19T05:25:03.356Z,10.50
2022-11-19T05:27:31.495Z,10.60
2022-11-19T05:29:59.850Z,10.70
2022-11-19T05:32:29.357Z,10.90
2022-11-19T05:34:57.387Z,10.90
2022-11-19T05:37:25.670Z,11.10
2022-11-19T05:39:53.765Z,11.00
2022-11-19T05:42:21.859Z,11.10
2022-11-19T05:44:50.247Z,11.10
2022-11-19T05:47:18.282Z,11.00
2022-11-19T05:49:47.765Z,10.90
2022-11-19T05:52:16.963Z,10.90
2022-11-19T05:54:45.117Z,10.90
2022-11-19T05:57:13.070Z,10.90
2022-11-19T05:59:44.073Z,10.90
2022-11-19T06:02:12.651Z,10.80
2022-11-19T06:04:40.709Z,10.90
2022-11-19T06:07:10.561Z,11.00
2022-11-19T06:09:39.046Z,10.90
2022-11-19T06:12:07.434Z,10.80
2022-11-19T06:14:35.833Z,10.90
2022-11-19T06:17:03.944Z,10.90
2022-11-19T06:19:32.018Z,10.90
2022-11-19T06:22:00.309Z,10.90
2022-11-19T06:24:29.976Z,10.90
2022-11-19T06:26:58.051Z,10.80
2022-11-19T06:29:26.503Z,10.80
2022-11-19T06:31:54.724Z,10.90
2022-11-19T06:34:22.884Z,10.90
2022-11-19T06:36:51.146Z,10.70
2022-11-19T06:39:19.626Z,10.80
2022-11-19T06:41:49.541Z,10.60
2022-11-19T06:44:17.951Z,10.50
2022-11-19T06:46:46.013Z,10.40
2022-11-19T06:49:19.926Z,10.50
2022-11-19T06:51:48.781Z,10.40
2022-11-19T06:54:17.024Z,10.40
2022-11-19T06:56:45.122Z,10.40
2022-11-19T06:59:15.750Z,10.70
2022-11-19T07:01:43.902Z,10.60
2022-11-19T07:04:12.124Z,10.60
2022-11-19T07:06:40.486Z,11.20
2022-11-19T07:09:08.853Z,11.60
2022-11-19T07:11:36.970Z,11.70
2022-11-19T07:14:05.172Z,11.70
2022-11-19T07:16:35.789Z,11.70
2022-11-19T07:19:05.385Z,11.70
2022-11-19T07:21:33.993Z,11.50
2022-11-19T07:24:05.365Z,11.70
2022-11-19T07:26:33.826Z,11.70
2022-11-19T07:29:04.854Z,11.80
2022-11-19T07:31:34.703Z,11.80
2022-11-19T07:34:02.997Z,11.70
2022-11-19T07:36:31.351Z,11.60
2022-11-19T07:38:59.447Z,11.60
2022-11-19T07:41:45.021Z,11.70
2022-11-19T07:44:13.290Z,11.50
2022-11-19T07:46:43.865Z,11.10
2022-11-19T07:49:12.045Z,10.80
2022-11-19T07:51:40.176Z,10.40
2022-11-19T07:54:09.318Z,10.30
2022-11-19T07:56:37.465Z,10.20
2022-11-19T07:59:05.544Z,10.10
2022-11-19T08:01:33.871Z,9.70
2022-11-19T08:04:05.462Z,9.60
2022-11-19T08:06:34.624Z,9.50
2022-11-19T08:09:03.914Z,9.30
2022-11-19T08:11:32.128Z,9.10
2022-11-19T08:14:01.152Z,9.00
2022-11-19T08:16:55.578Z,9.10
2022-11-19T08:19:25.045Z,9.10
2022-11-19T08:21:53.349Z,9.10
2022-11-19T08:24:22.096Z,9.20
2022-11-19T08:26:50.776Z,9.20
2022-11-19T08:29:20.442Z,9.20
2022-11-19T08:31:49.112Z,9.30
2022-11-19T08:34:18.112Z,9.20
2022-11-19T08:36:48.094Z,9.20
2022-11-19T08:39:16.934Z,9.10
2022-11-19T08:42:02.554Z,9.10
2022-11-19T08:44:30.897Z,9.10
2022-11-19T08:46:58.897Z,9.20
2022-11-19T08:49:30.532Z,9.10
2022-11-19T08:52:00.474Z,9.10
2022-11-19T08:54:28.648Z,9.10
2022-11-19T08:56:56.660Z,9.20
2022-11-19T08:59:25.084Z,9.10
2022-11-19T09:01:53.213Z,9.20
2022-11-19T09:04:21.663Z,9.00
2022-11-19T09:06:50.092Z,8.90
2022-11-19T09:09:19.958Z,8.90
2022-11-19T09:11:48.087Z,9.00
2022-11-19T09:14:17.020Z,9.00
2022-11-19T09:16:45.358Z,9.00
2022-11-19T09:19:14.515Z,9.00
2022-11-19T09:21:42.933Z,9.10
2022-11-19T09:24:11.110Z,9.20
2022-11-19T09:26:40.606Z,9.10
2022-11-19T09:29:09.005Z,9.00
2022-11-19T09:31:37.270Z,9.00
2022-11-19T09:34:05.351Z,8.90
2022-11-19T09:36:33.695Z,8.90
2022-11-19T09:39:02.295Z,8.90
2022-11-19T09:41:35.699Z,8.80
2022-11-19T09:44:12.748Z,8.90
2022-11-19T09:46:46.261Z,8.90
2022-11-19T09:49:17.901Z,8.90
2022-11-19T09:51:48.713Z,8.90
2022-11-19T09:54:18.758Z,8.90
2022-11-19T09:56:48.058Z,8.90
2022-11-19T09:59:22.730Z,8.90
2022-11-19T10:01:51.117Z,8.90
2022-11-19T10:04:22.484Z,8.90
2022-11-19T10:06:56.444Z,8.90
2022-11-19T10:09:30.239Z,8.80
2022-11-19T10:12:02.343Z,8.90
2022-11-19T10:14:42.095Z,9.00
2022-11-19T10:17:16.053Z,9.00
2022-11-19T10:19:46.892Z,9.00
2022-11-19T10:22:18.375Z,9.00
2022-11-19T10:24:50.726Z,9.00
2022-11-19T10:27:20.980Z,8.90
2022-11-19T10:29:52.833Z,8.80
2022-11-19T10:32:28.650Z,8.70
2022-11-19T10:34:59.198Z,8.70
2022-11-19T10:37:29.821Z,8.70
2022-11-19T10:40:01.103Z,8.70
2022-11-19T10:42:30.957Z,8.80
2022-11-19T10:45:01.547Z,8.70
2022-11-19T10:47:31.396Z,8.60
2022-11-19T10:49:59.586Z,8.50
2022-11-19T10:52:30.270Z,8.60
2022-11-19T10:55:01.142Z,8.60
2022-11-19T10:57:31.464Z,8.60
2022-11-19T11:00:01.235Z,8.70
2022-11-19T11:02:32.790Z,8.60
2022-11-19T11:05:07.053Z,8.70
2022-11-19T11:07:54.697Z,8.70
2022-11-19T11:10:28.191Z,8.70
2022-11-19T11:13:15.500Z,8.70
2022-11-19T11:15:49.023Z,8.60
2022-11-19T11:18:17.579Z,8.70
2022-11-19T11:20:47.530Z,8.80
2022-11-19T11:23:17.162Z,8.80
2022-11-19T11:25:52.652Z,8.40
2022-11-19T11:28:22.076Z,8.50
2022-11-19T11:30:55.972Z,8.50
2022-11-19T11:33:29.448Z,8.60
2022-11-19T11:35:58.915Z,8.50
2022-11-19T11:38:27.973Z,8.50
2022-11-19T11:41:20.676Z,8.20
2022-11-19T11:44:01.334Z,8.30
2022-11-19T11:46:36.947Z,8.30
2022-11-19T11:49:12.334Z,8.20
2022-11-19T11:51:41.019Z,8.00
2022-11-19T11:54:18.357Z,8.10
2022-11-19T11:56:47.194Z,8.20
2022-11-19T11:59:22.105Z,8.20
2022-11-19T12:01:58.724Z,8.30
2022-11-19T12:04:27.124Z,8.30
2022-11-19T12:06:59.052Z,8.30
2022-11-19T12:09:29.933Z,8.20
2022-11-19T12:12:01.030Z,8.20
2022-11-19T12:14:31.153Z,8.20
2022-11-19T12:17:14.487Z,8.20
2022-11-19T12:19:53.658Z,8.10
2022-11-19T12:22:26.134Z,8.20
2022-11-19T12:25:15.850Z,8.20
2022-11-19T12:27:50.842Z,8.10
2022-11-19T12:30:20.695Z,8.20
2022-11-19T12:32:59.080Z,8.20
2022-11-19T12:35:33.891Z,8.10
2022-11-19T12:38:10.453Z,8.00
2022-11-19T12:40:43.593Z,7.90
2022-11-19T12:43:17.537Z,7.80
2022-11-19T12:45:48.258Z,7.80
2022-11-19T12:48:24.886Z,7.80
2022-11-19T12:50:57.557Z,7.80
2022-11-19T12:53:33.734Z,7.70
2022-11-19T12:56:07.959Z,7.80
2022-11-19T12:58:40.728Z,7.90
2022-11-19T13:01:12.434Z,7.70
2022-11-19T13:03:48.406Z,7.80
2022-11-19T13:06:20.941Z,7.70
2022-11-19T13:08:51.047Z,7.60
2022-11-19T13:11:21.693Z,7.60
2022-11-19T13:13:51.916Z,7.50
2022-11-19T13:16:21.709Z,7.40
2022-11-19T13:18:52.563Z,7.40
2022-11-19T13:21:27.767Z,7.50
2022-11-19T13:23:57.167Z,7.60
2022-11-19T13:26:28.169Z,7.50
2022-11-19T13:28:59.566Z,7.40
2022-11-19T13:31:32.284Z,7.50
2022-11-19T13:34:02.709Z,7.60
2022-11-19T13:36:34.325Z,7.40
2022-11-19T13:39:05.702Z,7.30
2022-11-19T13:41:36.560Z,7.30
2022-11-19T13:44:23.339Z,7.20
2022-11-19T13:46:53.549Z,7.40
2022-11-19T13:49:25.053Z,7.40
2022-11-19T13:51:56.008Z,7.40
2022-11-19T13:54:26.077Z,7.30
2022-11-19T13:56:56.728Z,7.50
2022-11-19T13:59:26.959Z,7.40
2022-11-19T14:02:02.969Z,7.50
2022-11-19T14:04:42.012Z,7.40
2022-11-19T14:07:31.274Z,7.40
2022-11-19T14:10:05.043Z,7.40
2022-11-19T14:12:42.262Z,7.60
2022-11-19T14:15:44.144Z,7.60
2022-11-19T14:18:36.626Z,7.60
2022-11-19T14:21:36.908Z,7.70
2022-11-19T14:24:45.523Z,7.70
2022-11-19T14:27:19.987Z,7.70
2022-11-19T14:29:56.715Z,7.80
2022-11-19T14:32:42.689Z,7.80
2022-11-19T14:35:29.061Z,7.80
2022-11-19T14:37:58.729Z,7.70
2022-11-19T14:40:27.933Z,7.60
2022-11-19T14:43:32.466Z,7.40
2022-11-19T14:46:15.807Z,7.40
2022-11-19T14:48:50.985Z,7.40
2022-11-19T14:51:27.204Z,7.30
2022-11-19T14:53:58.196Z,7.40
2022-11-19T14:56:26.956Z,7.40
2022-11-19T14:58:56.860Z,7.50
2022-11-19T15:01:25.207Z,7.50
2022-11-19T15:03:56.824Z,7.60
2022-11-19T15:06:25.051Z,7.50
2022-11-19T15:08:53.968Z,7.50
2022-11-19T15:11:22.213Z,7.50
2022-11-19T15:14:10.449Z,7.30
2022-11-19T15:16:38.802Z,7.30
2022-11-19T15:19:24.316Z,7.30
2022-11-19T15:22:19.712Z,7.30
2022-11-19T15:24:53.600Z,7.20
2022-11-19T15:27:26.622Z,7.40
2022-11-19T15:30:01.734Z,7.30
2022-11-19T15:32:34.904Z,7.40
2022-11-19T15:35:18.614Z,7.40
2022-11-19T15:37:48.398Z,7.40
2022-11-19T15:40:18.254Z,7.40
2022-11-19T15:42:50.551Z,7.30
2022-11-19T15:45:19.969Z,7.20
2022-11-19T15:47:49.385Z,7.20
2022-11-19T15:50:20.140Z,7.30
2022-11-19T15:52:58.588Z,7.10
2022-11-19T15:55:28.667Z,7.20
2022-11-19T15:58:00.436Z,7.00
2022-11-19T16:00:29.029Z,7.00
2022-11-19T16:02:57.612Z,7.00
2022-11-19T16:05:28.166Z,7.10
2022-11-19T16:07:57.568Z,7.10
2022-11-19T16:10:28.812Z,7.10
2022-11-19T16:13:15.683Z,7.30
2022-11-19T16:16:11.313Z,7.40
2022-11-19T16:18:49.123Z,7.30
2022-11-19T16:21:21.251Z,7.30
2022-11-19T16:24:06.955Z,7.20
2022-11-19T16:26:37.359Z,7.20
2022-11-19T16:29:05.765Z,7.00
2022-11-19T16:31:34.002Z,7.20
2022-11-19T16:34:02.459Z,7.30
2022-11-19T16:36:32.804Z,7.30
2022-11-19T16:39:01.095Z,7.30
2022-11-19T16:41:46.835Z,7.30
2022-11-19T16:44:17.036Z,7.30
2022-11-19T16:46:45.950Z,7.30
2022-11-19T16:49:29.776Z,7.20
2022-11-19T16:52:00.316Z,7.20
2022-11-19T16:54:44.143Z,7.20
2022-11-19T16:57:13.032Z,7.20
2022-11-19T16:59:41.324Z,7.30
2022-11-19T17:02:15.707Z,7.30
2022-11-19T17:04:47.157Z,7.40
2022-11-19T17:07:21.661Z,7.50
2022-11-19T17:09:50.024Z,7.30
2022-11-19T17:12:25.799Z,7.00
2022-11-19T17:14:55.601Z,6.90
2022-11-19T17:17:44.602Z,7.00
2022-11-19T17:20:32.184Z,7.00
2022-11-19T17:23:03.146Z,7.00
2022-11-19T17:25:31.535Z,6.90
2022-11-19T17:28:00.617Z,7.00
2022-11-19T17:30:32.170Z,7.20
2022-11-19T17:33:01.866Z,7.20
2022-11-19T17:35:33.304Z,7.20
2022-11-19T17:38:09.356Z,7.20
2022-11-19T17:40:37.475Z,7.10
2022-11-19T17:43:27.013Z,7.10
2022-11-19T17:45:55.154Z,7.10
2022-11-19T17:48:24.519Z,7.10
2022-11-19T17:50:52.796Z,7.10
2022-11-19T17:53:22.778Z,7.00
2022-11-19T17:55:52.893Z,6.90
2022-11-19T17:58:21.249Z,7.00
2022-11-19T18:00:49.389Z,7.00
2022-11-19T18:03:18.755Z,7.00
2022-11-19T18:05:48.340Z,7.00
2022-11-19T18:08:17.464Z,7.00
2022-11-19T18:10:48.293Z,7.10
2022-11-19T18:13:19.084Z,7.20
2022-11-19T18:15:47.349Z,7.30
2022-11-19T18:18:20.228Z,7.20
2022-11-19T18:20:50.232Z,7.20
2022-11-19T18:23:18.421Z,7.20
2022-11-19T18:25:47.818Z,7.10
2022-11-19T18:28:17.109Z,6.90
2022-11-19T18:30:45.455Z,6.90
2022-11-19T18:33:13.930Z,7.00
2022-11-19T18:35:42.752Z,7.20
2022-11-19T18:38:10.898Z,7.10
2022-11-19T18:40:39.093Z,7.10
2022-11-19T18:43:27.257Z,7.10
2022-11-19T18:45:55.412Z,7.20
2022-11-19T18:48:23.643Z,7.10
2022-11-19T18:50:51.830Z,7.00
2022-11-19T18:53:19.994Z,6.90
2022-11-19T18:55:48.425Z,6.90
2022-11-19T18:58:18.355Z,7.10
2022-11-19T19:00:46.548Z,7.10
2022-11-19T19:03:15.749Z,6.90
2022-11-19T19:05:43.807Z,6.80
2022-11-19T19:08:13.374Z,6.70
2022-11-19T19:10:42.757Z,6.70
2022-11-19T19:13:09.830Z,6.80
2022-11-19T19:15:39.418Z,6.60
2022-11-19T19:18:08.124Z,6.60
2022-11-19T19:20:36.310Z,6.60
2022-11-19T19:23:04.542Z,6.70
2022-11-19T19:25:32.921Z,6.70
2022-11-19T19:28:01.045Z,6.80
2022-11-19T19:30:29.070Z,6.80
2022-11-19T19:32:58.825Z,6.90
2022-11-19T19:35:27.021Z,6.90
2022-11-19T19:37:55.230Z,6.80
2022-11-19T19:40:23.547Z,6.80
2022-11-19T19:42:51.629Z,6.70
2022-11-19T19:45:19.712Z,6.60
2022-11-19T19:47:47.856Z,6.60
2022-11-19T19:50:17.347Z,6.60
2022-11-19T19:52:45.593Z,6.60
2022-11-19T19:55:14.651Z,6.80
2022-11-19T19:57:42.725Z,6.70
2022-11-19T20:00:12.458Z,6.60
2022-11-19T20:02:40.649Z,6.40
2022-11-19T20:05:09.269Z,6.50
2022-11-19T20:07:38.811Z,6.40
2022-11-19T20:10:07.872Z,6.60
2022-11-19T20:12:49.937Z,6.60
2022-11-19T20:15:18.626Z,6.50
2022-11-19T20:17:46.631Z,6.50
2022-11-19T20:20:15.852Z,6.30
2022-11-19T20:22:45.547Z,6.50
2022-11-19T20:25:13.814Z,6.50
2022-11-19T20:27:42.490Z,6.50
2022-11-19T20:30:11.278Z,6.50
2022-11-19T20:32:39.493Z,6.60
2022-11-19T20:35:07.895Z,6.80
2022-11-19T20:37:36.209Z,6.70
2022-11-19T20:40:06.118Z,6.80
2022-11-19T20:42:51.363Z,6.90
2022-11-19T20:45:19.762Z,7.00
2022-11-19T20:47:47.938Z,7.00
2022-11-19T20:50:17.319Z,7.00
2022-11-19T20:52:45.717Z,7.00
2022-11-19T20:55:15.812Z,7.10
2022-11-19T20:57:44.085Z,7.20
2022-11-19T21:00:13.062Z,7.10
2022-11-19T21:02:41.180Z,7.10
2022-11-19T21:05:09.494Z,7.10
2022-11-19T21:07:38.479Z,7.00
2022-11-19T21:10:08.128Z,7.10
2022-11-19T21:12:57.693Z,7.10
2022-11-19T21:15:26.224Z,7.10
2022-11-19T21:17:54.448Z,7.10
2022-11-19T21:20:23.233Z,7.10
2022-11-19T21:22:52.949Z,7.10
2022-11-19T21:25:21.258Z,7.20
2022-11-19T21:27:50.769Z,7.20
2022-11-19T21:30:20.087Z,7.30
2022-11-19T21:32:48.322Z,7.30
2022-11-19T21:35:17.060Z,7.30
2022-11-19T21:37:45.444Z,7.10
2022-11-19T21:40:13.833Z,7.10
2022-11-19T21:42:42.594Z,7.10
2022-11-19T21:45:12.362Z,7.30
2022-11-19T21:47:40.920Z,7.20
2022-11-19T21:50:09.298Z,7.20
2022-11-19T21:52:37.755Z,7.40
2022-11-19T21:55:06.300Z,7.60
2022-11-19T21:57:34.475Z,7.70
2022-11-19T22:00:02.845Z,7.60
2022-11-19T22:02:42.423Z,7.50
2022-11-19T22:05:10.785Z,7.40
2022-11-19T22:07:39.003Z,7.30
2022-11-19T22:10:07.583Z,7.40
2022-11-19T22:12:35.993Z,7.30
2022-11-19T22:15:04.094Z,7.30
2022-11-19T22:17:33.131Z,7.30
2022-11-19T22:20:03.057Z,7.30
2022-11-19T22:22:31.204Z,7.30
2022-11-19T22:24:59.655Z,7.10
2022-11-19T22:27:29.291Z,7.00
2022-11-19T22:30:04.559Z,7.00
2022-11-19T22:32:34.434Z,6.90
2022-11-19T22:35:03.995Z,6.80
2022-11-19T22:37:32.227Z,6.80
2022-11-19T22:40:00.522Z,6.90
2022-11-19T22:42:28.772Z,6.90
2022-11-19T22:44:56.866Z,6.90
2022-11-19T22:47:25.304Z,7.00
2022-11-19T22:49:53.444Z,7.20
2022-11-19T22:52:22.966Z,7.30
2022-11-19T22:54:51.324Z,7.40
2022-11-19T22:57:19.480Z,7.30
2022-11-19T22:59:47.558Z,7.20
2022-11-19T23:02:16.637Z,7.20
2022-11-19T23:04:44.739Z,7.20
2022-11-19T23:07:12.996Z,7.10
2022-11-19T23:09:42.684Z,7.20
2022-11-19T23:12:28.478Z,7.20
2022-11-19T23:14:57.049Z,7.10
2022-11-19T23:17:25.136Z,7.00
2022-11-19T23:19:53.265Z,7.00
2022-11-19T23:22:21.533Z,6.80
2022-11-19T23:24:51.046Z,6.80
2022-11-19T23:27:22.108Z,6.90
2022-11-19T23:29:50.671Z,6.70
2022-11-19T23:32:18.847Z,6.70
2022-11-19T23:34:46.960Z,6.80
2022-11-19T23:37:15.620Z,6.90
2022-11-19T23:39:43.743Z,6.80
2022-11-19T23:42:13.204Z,6.80
2022-11-19T23:44:42.301Z,6.80
2022-11-19T23:47:10.462Z,6.90
2022-11-19T23:49:38.794Z,6.80
2022-11-19T23:52:07.063Z,6.80
2022-11-19T23:54:35.448Z,7.00
2022-11-19T23:57:03.707Z,7.00
2022-11-19T23:59:33.594Z,6.90
